sensor_id;sensor_type;location;lat;lon;timestamp;P1;durP1;ratioP1;P2;durP2;ratioP2
19846;SDS011;10084;50.518;8.588;2023-06-19T00:02:15;5.97;;;5.57;;
19846;SDS011;10084;50.518;8.588;2023-06-19T00:04:41;5.40;;;5.00;;
19846;SDS011;10084;50.518;8.588;2023-06-19T00:07:07;4.90;;;4.60;;
19846;SDS011;10084;50.518;8.588;2023-06-19T00:09:32;5.60;;;5.30;;
19846;SDS011;10084;50.518;8.588;2023-06-19T00:11:58;5.13;;;4.73;;
19846;SDS011;10084;50.518;8.588;2023-06-19T00:14:25;5.70;;;5.23;;
19846;SDS011;10084;50.518;8.588;2023-06-19T00:16:51;5.53;;;5.13;;
19846;SDS011;10084;50.518;8.588;2023-06-19T00:19:16;5.50;;;5.10;;
19846;SDS011;10084;50.518;8.588;2023-06-19T00:21:43;5.17;;;4.87;;
19846;SDS011;10084;50.518;8.588;2023-06-19T00:24:09;6.03;;;5.60;;
19846;SDS011;10084;50.518;8.588;2023-06-19T00:26:35;6.23;;;5.17;;
19846;SDS011;10084;50.518;8.588;2023-06-19T00:29:01;5.93;;;5.53;;
19846;SDS011;10084;50.518;8.588;2023-06-19T00:31:27;7.60;;;5.53;;
19846;SDS011;10084;50.518;8.588;2023-06-19T00:33:53;8.30;;;4.77;;
19846;SDS011;10084;50.518;8.588;2023-06-19T00:36:19;5.87;;;4.67;;
19846;SDS011;10084;50.518;8.588;2023-06-19T00:38:46;6.43;;;4.63;;
19846;SDS011;10084;50.518;8.588;2023-06-19T00:41:13;5.17;;;4.87;;
19846;SDS011;10084;50.518;8.588;2023-06-19T00:43:41;5.37;;;4.97;;
19846;SDS011;10084;50.518;8.588;2023-06-19T00:46:07;19.80;;;5.17;;
19846;SDS011;10084;50.518;8.588;2023-06-19T00:48:34;5.07;;;4.77;;
19846;SDS011;10084;50.518;8.588;2023-06-19T00:51:00;5.47;;;5.10;;
19846;SDS011;10084;50.518;8.588;2023-06-19T00:53:26;5.50;;;5.10;;
19846;SDS011;10084;50.518;8.588;2023-06-19T00:55:52;5.13;;;4.73;;
19846;SDS011;10084;50.518;8.588;2023-06-19T00:58:22;5.10;;;4.80;;
19846;SDS011;10084;50.518;8.588;2023-06-19T01:00:49;4.73;;;4.43;;
19846;SDS011;10084;50.518;8.588;2023-06-19T01:03:15;4.93;;;4.63;;
19846;SDS011;10084;50.518;8.588;2023-06-19T01:05:42;4.87;;;4.47;;
19846;SDS011;10084;50.518;8.588;2023-06-19T01:08:10;4.67;;;4.37;;
19846;SDS011;10084;50.518;8.588;2023-06-19T01:10:46;5.50;;;5.00;;
19846;SDS011;10084;50.518;8.588;2023-06-19T01:13:28;4.73;;;4.33;;
19846;SDS011;10084;50.518;8.588;2023-06-19T01:16:02;5.47;;;5.10;;
19846;SDS011;10084;50.518;8.588;2023-06-19T01:18:29;5.03;;;4.73;;
19846;SDS011;10084;50.518;8.588;2023-06-19T01:20:56;5.20;;;4.80;;
19846;SDS011;10084;50.518;8.588;2023-06-19T01:23:34;5.30;;;5.00;;
19846;SDS011;10084;50.518;8.588;2023-06-19T01:26:00;5.47;;;5.03;;
19846;SDS011;10084;50.518;8.588;2023-06-19T01:28:26;5.57;;;5.23;;
19846;SDS011;10084;50.518;8.588;2023-06-19T01:30:53;6.07;;;4.80;;
19846;SDS011;10084;50.518;8.588;2023-06-19T01:33:25;5.00;;;4.60;;
19846;SDS011;10084;50.518;8.588;2023-06-19T01:35:53;6.83;;;4.67;;
19846;SDS011;10084;50.518;8.588;2023-06-19T01:38:22;4.60;;;4.30;;
19846;SDS011;10084;50.518;8.588;2023-06-19T01:40:52;5.70;;;5.30;;
19846;SDS011;10084;50.518;8.588;2023-06-19T01:43:19;5.03;;;4.73;;
19846;SDS011;10084;50.518;8.588;2023-06-19T01:45:46;5.57;;;5.00;;
19846;SDS011;10084;50.518;8.588;2023-06-19T01:48:13;8.57;;;4.87;;
19846;SDS011;10084;50.518;8.588;2023-06-19T01:50:39;4.63;;;4.33;;
19846;SDS011;10084;50.518;8.588;2023-06-19T01:53:11;8.27;;;4.80;;
19846;SDS011;10084;50.518;8.588;2023-06-19T01:55:37;4.83;;;4.53;;
19846;SDS011;10084;50.518;8.588;2023-06-19T01:58:03;4.70;;;4.47;;
19846;SDS011;10084;50.518;8.588;2023-06-19T02:00:29;6.20;;;5.60;;
19846;SDS011;10084;50.518;8.588;2023-06-19T02:02:57;5.47;;;5.17;;
19846;SDS011;10084;50.518;8.588;2023-06-19T02:05:22;5.50;;;5.10;;
19846;SDS011;10084;50.518;8.588;2023-06-19T02:07:48;6.07;;;5.30;;
19846;SDS011;10084;50.518;8.588;2023-06-19T02:10:15;5.00;;;4.60;;
19846;SDS011;10084;50.518;8.588;2023-06-19T02:12:40;5.07;;;4.77;;
19846;SDS011;10084;50.518;8.588;2023-06-19T02:15:06;4.93;;;4.63;;
19846;SDS011;10084;50.518;8.588;2023-06-19T02:17:32;4.60;;;4.30;;
19846;SDS011;10084;50.518;8.588;2023-06-19T02:19:58;6.53;;;5.17;;
19846;SDS011;10084;50.518;8.588;2023-06-19T02:22:24;5.83;;;5.17;;
19846;SDS011;10084;50.518;8.588;2023-06-19T02:24:49;5.63;;;4.97;;
19846;SDS011;10084;50.518;8.588;2023-06-19T02:27:15;4.93;;;4.53;;
19846;SDS011;10084;50.518;8.588;2023-06-19T02:29:41;4.33;;;4.03;;
19846;SDS011;10084;50.518;8.588;2023-06-19T02:32:07;4.87;;;4.57;;
19846;SDS011;10084;50.518;8.588;2023-06-19T02:34:33;5.67;;;5.27;;
19846;SDS011;10084;50.518;8.588;2023-06-19T02:36:59;5.03;;;4.63;;
19846;SDS011;10084;50.518;8.588;2023-06-19T02:39:25;6.00;;;5.00;;
19846;SDS011;10084;50.518;8.588;2023-06-19T02:41:50;4.43;;;4.13;;
19846;SDS011;10084;50.518;8.588;2023-06-19T02:44:16;5.03;;;4.67;;
19846;SDS011;10084;50.518;8.588;2023-06-19T02:46:42;4.53;;;4.23;;
19846;SDS011;10084;50.518;8.588;2023-06-19T02:49:08;5.13;;;4.80;;
19846;SDS011;10084;50.518;8.588;2023-06-19T02:51:34;4.93;;;4.43;;
19846;SDS011;10084;50.518;8.588;2023-06-19T02:53:59;5.07;;;4.77;;
19846;SDS011;10084;50.518;8.588;2023-06-19T02:56:25;4.67;;;4.37;;
19846;SDS011;10084;50.518;8.588;2023-06-19T02:58:52;4.07;;;3.77;;
19846;SDS011;10084;50.518;8.588;2023-06-19T03:01:18;5.33;;;4.17;;
19846;SDS011;10084;50.518;8.588;2023-06-19T03:03:44;6.07;;;5.20;;
19846;SDS011;10084;50.518;8.588;2023-06-19T03:06:11;5.13;;;4.73;;
19846;SDS011;10084;50.518;8.588;2023-06-19T03:08:38;4.60;;;4.30;;
19846;SDS011;10084;50.518;8.588;2023-06-19T03:11:04;5.33;;;4.93;;
19846;SDS011;10084;50.518;8.588;2023-06-19T03:13:33;5.17;;;4.67;;
19846;SDS011;10084;50.518;8.588;2023-06-19T03:16:08;4.97;;;4.57;;
19846;SDS011;10084;50.518;8.588;2023-06-19T03:18:34;5.00;;;4.70;;
19846;SDS011;10084;50.518;8.588;2023-06-19T03:20:59;5.40;;;5.07;;
19846;SDS011;10084;50.518;8.588;2023-06-19T03:23:25;4.80;;;4.50;;
19846;SDS011;10084;50.518;8.588;2023-06-19T03:25:51;6.10;;;4.07;;
19846;SDS011;10084;50.518;8.588;2023-06-19T03:28:17;4.87;;;4.57;;
19846;SDS011;10084;50.518;8.588;2023-06-19T03:30:42;4.10;;;3.90;;
19846;SDS011;10084;50.518;8.588;2023-06-19T03:33:08;4.50;;;4.10;;
19846;SDS011;10084;50.518;8.588;2023-06-19T03:35:39;5.13;;;4.73;;
19846;SDS011;10084;50.518;8.588;2023-06-19T03:38:06;5.27;;;4.77;;
19846;SDS011;10084;50.518;8.588;2023-06-19T03:40:33;5.37;;;4.87;;
19846;SDS011;10084;50.518;8.588;2023-06-19T03:43:05;5.03;;;4.73;;
19846;SDS011;10084;50.518;8.588;2023-06-19T03:45:31;4.97;;;4.67;;
19846;SDS011;10084;50.518;8.588;2023-06-19T03:47:57;4.97;;;4.67;;
19846;SDS011;10084;50.518;8.588;2023-06-19T03:50:22;5.03;;;4.53;;
19846;SDS011;10084;50.518;8.588;2023-06-19T03:52:48;4.83;;;4.53;;
19846;SDS011;10084;50.518;8.588;2023-06-19T03:55:14;4.63;;;4.33;;
19846;SDS011;10084;50.518;8.588;2023-06-19T03:57:39;4.87;;;4.50;;
19846;SDS011;10084;50.518;8.588;2023-06-19T04:00:05;4.80;;;4.30;;
19846;SDS011;10084;50.518;8.588;2023-06-19T04:02:37;4.73;;;4.23;;
19846;SDS011;10084;50.518;8.588;2023-06-19T04:05:03;5.53;;;5.00;;
19846;SDS011;10084;50.518;8.588;2023-06-19T04:07:30;4.97;;;4.57;;
19846;SDS011;10084;50.518;8.588;2023-06-19T04:09:57;4.67;;;4.37;;
19846;SDS011;10084;50.518;8.588;2023-06-19T04:12:22;5.00;;;4.70;;
19846;SDS011;10084;50.518;8.588;2023-06-19T04:14:48;6.27;;;5.07;;
19846;SDS011;10084;50.518;8.588;2023-06-19T04:17:14;8.17;;;4.70;;
19846;SDS011;10084;50.518;8.588;2023-06-19T04:19:41;10.23;;;5.57;;
19846;SDS011;10084;50.518;8.588;2023-06-19T04:22:06;8.00;;;5.30;;
19846;SDS011;10084;50.518;8.588;2023-06-19T04:24:32;5.00;;;4.70;;
19846;SDS011;10084;50.518;8.588;2023-06-19T04:26:59;6.20;;;5.13;;
19846;SDS011;10084;50.518;8.588;2023-06-19T04:29:24;5.23;;;4.73;;
19846;SDS011;10084;50.518;8.588;2023-06-19T04:31:50;4.60;;;4.30;;
19846;SDS011;10084;50.518;8.588;2023-06-19T04:34:16;6.00;;;4.97;;
19846;SDS011;10084;50.518;8.588;2023-06-19T04:36:46;6.70;;;6.00;;
19846;SDS011;10084;50.518;8.588;2023-06-19T04:39:12;7.00;;;4.97;;
19846;SDS011;10084;50.518;8.588;2023-06-19T04:41:38;6.37;;;4.83;;
19846;SDS011;10084;50.518;8.588;2023-06-19T04:44:04;11.70;;;5.40;;
19846;SDS011;10084;50.518;8.588;2023-06-19T04:46:31;5.97;;;5.50;;
19846;SDS011;10084;50.518;8.588;2023-06-19T04:48:56;6.30;;;5.17;;
19846;SDS011;10084;50.518;8.588;2023-06-19T04:51:22;5.07;;;4.77;;
19846;SDS011;10084;50.518;8.588;2023-06-19T04:53:48;4.63;;;4.33;;
19846;SDS011;10084;50.518;8.588;2023-06-19T04:56:14;5.53;;;5.03;;
19846;SDS011;10084;50.518;8.588;2023-06-19T04:58:40;4.37;;;4.07;;
19846;SDS011;10084;50.518;8.588;2023-06-19T05:01:11;4.60;;;4.30;;
19846;SDS011;10084;50.518;8.588;2023-06-19T05:03:37;4.60;;;4.30;;
19846;SDS011;10084;50.518;8.588;2023-06-19T05:06:04;4.40;;;4.07;;
19846;SDS011;10084;50.518;8.588;2023-06-19T05:08:30;4.77;;;4.47;;
19846;SDS011;10084;50.518;8.588;2023-06-19T05:10:55;4.03;;;3.83;;
19846;SDS011;10084;50.518;8.588;2023-06-19T05:13:23;4.27;;;3.97;;
19846;SDS011;10084;50.518;8.588;2023-06-19T05:15:49;8.67;;;4.47;;
19846;SDS011;10084;50.518;8.588;2023-06-19T05:18:15;6.03;;;5.43;;
19846;SDS011;10084;50.518;8.588;2023-06-19T05:20:41;6.17;;;5.77;;
19846;SDS011;10084;50.518;8.588;2023-06-19T05:23:07;6.60;;;5.97;;
19846;SDS011;10084;50.518;8.588;2023-06-19T05:25:33;6.00;;;5.43;;
19846;SDS011;10084;50.518;8.588;2023-06-19T05:27:59;8.00;;;5.77;;
19846;SDS011;10084;50.518;8.588;2023-06-19T05:30:25;6.53;;;6.10;;
19846;SDS011;10084;50.518;8.588;2023-06-19T05:32:50;4.87;;;4.57;;
19846;SDS011;10084;50.518;8.588;2023-06-19T05:35:16;7.43;;;5.10;;
19846;SDS011;10084;50.518;8.588;2023-06-19T05:37:42;5.13;;;4.70;;
19846;SDS011;10084;50.518;8.588;2023-06-19T05:40:10;7.30;;;5.00;;
19846;SDS011;10084;50.518;8.588;2023-06-19T05:42:36;6.17;;;5.53;;
19846;SDS011;10084;50.518;8.588;2023-06-19T05:45:03;5.63;;;5.13;;
19846;SDS011;10084;50.518;8.588;2023-06-19T05:47:29;5.50;;;5.10;;
19846;SDS011;10084;50.518;8.588;2023-06-19T05:49:58;9.70;;;4.97;;
19846;SDS011;10084;50.518;8.588;2023-06-19T05:52:24;4.07;;;3.87;;
19846;SDS011;10084;50.518;8.588;2023-06-19T05:54:50;7.20;;;4.47;;
19846;SDS011;10084;50.518;8.588;2023-06-19T05:57:16;7.63;;;3.90;;
19846;SDS011;10084;50.518;8.588;2023-06-19T05:59:46;3.30;;;3.10;;
19846;SDS011;10084;50.518;8.588;2023-06-19T06:02:12;3.80;;;3.50;;
19846;SDS011;10084;50.518;8.588;2023-06-19T06:04:38;3.13;;;2.80;;
19846;SDS011;10084;50.518;8.588;2023-06-19T06:07:04;7.73;;;3.20;;
19846;SDS011;10084;50.518;8.588;2023-06-19T06:09:30;4.00;;;2.63;;
19846;SDS011;10084;50.518;8.588;2023-06-19T06:11:58;2.43;;;2.33;;
19846;SDS011;10084;50.518;8.588;2023-06-19T06:14:24;4.07;;;2.43;;
19846;SDS011;10084;50.518;8.588;2023-06-19T06:16:50;2.17;;;2.07;;
19846;SDS011;10084;50.518;8.588;2023-06-19T06:19:15;2.70;;;2.50;;
19846;SDS011;10084;50.518;8.588;2023-06-19T06:21:41;3.00;;;2.80;;
19846;SDS011;10084;50.518;8.588;2023-06-19T06:24:07;3.03;;;2.83;;
19846;SDS011;10084;50.518;8.588;2023-06-19T06:26:32;2.33;;;2.13;;
19846;SDS011;10084;50.518;8.588;2023-06-19T06:28:58;1.93;;;1.83;;
19846;SDS011;10084;50.518;8.588;2023-06-19T06:31:24;2.47;;;2.27;;
19846;SDS011;10084;50.518;8.588;2023-06-19T06:33:50;2.37;;;2.27;;
19846;SDS011;10084;50.518;8.588;2023-06-19T06:36:15;2.00;;;1.90;;
19846;SDS011;10084;50.518;8.588;2023-06-19T06:38:41;2.60;;;2.40;;
19846;SDS011;10084;50.518;8.588;2023-06-19T06:41:07;2.43;;;2.23;;
19846;SDS011;10084;50.518;8.588;2023-06-19T06:43:33;7.07;;;2.90;;
19846;SDS011;10084;50.518;8.588;2023-06-19T06:45:59;2.60;;;2.40;;
19846;SDS011;10084;50.518;8.588;2023-06-19T06:48:25;2.47;;;2.37;;
19846;SDS011;10084;50.518;8.588;2023-06-19T06:50:51;4.50;;;2.60;;
19846;SDS011;10084;50.518;8.588;2023-06-19T06:53:24;6.97;;;2.50;;
19846;SDS011;10084;50.518;8.588;2023-06-19T06:55:51;2.30;;;2.20;;
19846;SDS011;10084;50.518;8.588;2023-06-19T06:58:17;3.00;;;2.80;;
19846;SDS011;10084;50.518;8.588;2023-06-19T07:00:44;2.87;;;2.67;;
19846;SDS011;10084;50.518;8.588;2023-06-19T07:03:09;6.30;;;2.37;;
19846;SDS011;10084;50.518;8.588;2023-06-19T07:05:35;2.43;;;2.33;;
19846;SDS011;10084;50.518;8.588;2023-06-19T07:08:01;2.20;;;2.10;;
19846;SDS011;10084;50.518;8.588;2023-06-19T07:10:27;2.43;;;2.33;;
19846;SDS011;10084;50.518;8.588;2023-06-19T07:12:52;3.50;;;2.60;;
19846;SDS011;10084;50.518;8.588;2023-06-19T07:15:18;2.67;;;2.47;;
19846;SDS011;10084;50.518;8.588;2023-06-19T07:17:44;3.23;;;3.03;;
19846;SDS011;10084;50.518;8.588;2023-06-19T07:20:10;2.13;;;2.03;;
19846;SDS011;10084;50.518;8.588;2023-06-19T07:22:36;2.53;;;2.23;;
19846;SDS011;10084;50.518;8.588;2023-06-19T07:25:02;3.00;;;2.80;;
19846;SDS011;10084;50.518;8.588;2023-06-19T07:27:29;2.23;;;2.13;;
19846;SDS011;10084;50.518;8.588;2023-06-19T07:29:55;2.30;;;2.20;;
19846;SDS011;10084;50.518;8.588;2023-06-19T07:32:21;2.97;;;2.77;;
19846;SDS011;10084;50.518;8.588;2023-06-19T07:34:46;2.90;;;2.70;;
19846;SDS011;10084;50.518;8.588;2023-06-19T07:37:12;2.73;;;2.53;;
19846;SDS011;10084;50.518;8.588;2023-06-19T07:39:45;3.03;;;2.83;;
19846;SDS011;10084;50.518;8.588;2023-06-19T07:42:12;2.70;;;2.50;;
19846;SDS011;10084;50.518;8.588;2023-06-19T07:44:39;2.30;;;2.20;;
19846;SDS011;10084;50.518;8.588;2023-06-19T07:47:06;4.23;;;2.50;;
19846;SDS011;10084;50.518;8.588;2023-06-19T07:49:32;2.53;;;2.37;;
19846;SDS011;10084;50.518;8.588;2023-06-19T07:51:58;4.07;;;2.60;;
19846;SDS011;10084;50.518;8.588;2023-06-19T07:54:23;2.60;;;2.40;;
19846;SDS011;10084;50.518;8.588;2023-06-19T07:56:49;3.83;;;2.70;;
19846;SDS011;10084;50.518;8.588;2023-06-19T07:59:15;2.20;;;2.10;;
19846;SDS011;10084;50.518;8.588;2023-06-19T08:01:42;2.57;;;2.40;;
19846;SDS011;10084;50.518;8.588;2023-06-19T08:04:08;2.43;;;2.33;;
19846;SDS011;10084;50.518;8.588;2023-06-19T08:06:33;2.73;;;2.53;;
19846;SDS011;10084;50.518;8.588;2023-06-19T08:08:59;2.43;;;2.33;;
19846;SDS011;10084;50.518;8.588;2023-06-19T08:11:25;2.03;;;1.93;;
19846;SDS011;10084;50.518;8.588;2023-06-19T08:13:51;2.50;;;2.30;;
19846;SDS011;10084;50.518;8.588;2023-06-19T08:16:16;2.57;;;2.47;;
19846;SDS011;10084;50.518;8.588;2023-06-19T08:18:43;2.20;;;2.10;;
19846;SDS011;10084;50.518;8.588;2023-06-19T08:21:09;2.37;;;2.17;;
19846;SDS011;10084;50.518;8.588;2023-06-19T08:23:35;2.40;;;2.07;;
19846;SDS011;10084;50.518;8.588;2023-06-19T08:26:03;2.57;;;2.00;;
19846;SDS011;10084;50.518;8.588;2023-06-19T08:28:29;2.20;;;2.10;;
19846;SDS011;10084;50.518;8.588;2023-06-19T08:30:56;4.77;;;1.83;;
19846;SDS011;10084;50.518;8.588;2023-06-19T08:33:21;11.77;;;2.27;;
19846;SDS011;10084;50.518;8.588;2023-06-19T08:35:48;2.53;;;2.07;;
19846;SDS011;10084;50.518;8.588;2023-06-19T08:38:13;1.80;;;1.70;;
19846;SDS011;10084;50.518;8.588;2023-06-19T08:40:41;2.27;;;2.17;;
19846;SDS011;10084;50.518;8.588;2023-06-19T08:43:08;1.80;;;1.70;;
19846;SDS011;10084;50.518;8.588;2023-06-19T08:45:34;2.27;;;2.13;;
19846;SDS011;10084;50.518;8.588;2023-06-19T08:48:03;2.57;;;2.33;;
19846;SDS011;10084;50.518;8.588;2023-06-19T08:50:34;2.03;;;1.93;;
19846;SDS011;10084;50.518;8.588;2023-06-19T08:53:00;1.93;;;1.70;;
19846;SDS011;10084;50.518;8.588;2023-06-19T08:55:26;1.90;;;1.80;;
19846;SDS011;10084;50.518;8.588;2023-06-19T08:57:52;2.60;;;2.40;;
19846;SDS011;10084;50.518;8.588;2023-06-19T09:00:28;2.30;;;2.13;;
19846;SDS011;10084;50.518;8.588;2023-06-19T09:03:00;5.50;;;1.97;;
19846;SDS011;10084;50.518;8.588;2023-06-19T09:05:27;2.30;;;2.10;;
19846;SDS011;10084;50.518;8.588;2023-06-19T09:07:54;12.23;;;1.83;;
19846;SDS011;10084;50.518;8.588;2023-06-19T09:10:21;2.20;;;1.77;;
19846;SDS011;10084;50.518;8.588;2023-06-19T09:15:44;3.07;;;1.87;;
19846;SDS011;10084;50.518;8.588;2023-06-19T09:18:10;2.23;;;1.93;;
19846;SDS011;10084;50.518;8.588;2023-06-19T09:20:40;2.17;;;2.07;;
19846;SDS011;10084;50.518;8.588;2023-06-19T09:23:10;2.03;;;1.93;;
19846;SDS011;10084;50.518;8.588;2023-06-19T09:28:22;2.30;;;2.10;;
19846;SDS011;10084;50.518;8.588;2023-06-19T09:30:55;4.53;;;2.33;;
19846;SDS011;10084;50.518;8.588;2023-06-19T09:33:26;2.20;;;2.00;;
19846;SDS011;10084;50.518;8.588;2023-06-19T09:35:54;2.13;;;2.03;;
19846;SDS011;10084;50.518;8.588;2023-06-19T09:38:23;1.90;;;1.80;;
19846;SDS011;10084;50.518;8.588;2023-06-19T09:40:51;5.37;;;1.60;;
19846;SDS011;10084;50.518;8.588;2023-06-19T09:43:24;2.10;;;2.00;;
19846;SDS011;10084;50.518;8.588;2023-06-19T09:46:06;4.17;;;1.90;;
19846;SDS011;10084;50.518;8.588;2023-06-19T09:48:33;1.97;;;1.87;;
19846;SDS011;10084;50.518;8.588;2023-06-19T09:51:19;2.00;;;1.87;;
19846;SDS011;10084;50.518;8.588;2023-06-19T09:53:51;2.13;;;2.03;;
19846;SDS011;10084;50.518;8.588;2023-06-19T09:56:17;5.70;;;2.20;;
19846;SDS011;10084;50.518;8.588;2023-06-19T09:58:47;1.83;;;1.73;;
19846;SDS011;10084;50.518;8.588;2023-06-19T10:01:15;2.20;;;1.80;;
19846;SDS011;10084;50.518;8.588;2023-06-19T10:03:45;3.27;;;2.00;;
19846;SDS011;10084;50.518;8.588;2023-06-19T10:06:14;2.37;;;2.17;;
19846;SDS011;10084;50.518;8.588;2023-06-19T10:08:42;2.10;;;2.00;;
19846;SDS011;10084;50.518;8.588;2023-06-19T10:11:09;1.70;;;1.60;;
19846;SDS011;10084;50.518;8.588;2023-06-19T10:13:36;1.90;;;1.70;;
19846;SDS011;10084;50.518;8.588;2023-06-19T10:16:06;2.20;;;2.10;;
19846;SDS011;10084;50.518;8.588;2023-06-19T10:18:32;1.80;;;1.70;;
19846;SDS011;10084;50.518;8.588;2023-06-19T10:21:20;1.83;;;1.73;;
19846;SDS011;10084;50.518;8.588;2023-06-19T10:23:56;1.70;;;1.60;;
19846;SDS011;10084;50.518;8.588;2023-06-19T10:26:30;2.00;;;1.90;;
19846;SDS011;10084;50.518;8.588;2023-06-19T10:28:57;2.30;;;2.20;;
19846;SDS011;10084;50.518;8.588;2023-06-19T10:31:23;1.80;;;1.70;;
19846;SDS011;10084;50.518;8.588;2023-06-19T10:33:49;1.77;;;1.67;;
19846;SDS011;10084;50.518;8.588;2023-06-19T10:38:41;2.20;;;2.00;;
19846;SDS011;10084;50.518;8.588;2023-06-19T10:41:14;1.63;;;1.53;;
19846;SDS011;10084;50.518;8.588;2023-06-19T10:43:52;4.23;;;1.67;;
19846;SDS011;10084;50.518;8.588;2023-06-19T10:46:20;1.73;;;1.63;;
19846;SDS011;10084;50.518;8.588;2023-06-19T10:48:47;2.97;;;1.70;;
19846;SDS011;10084;50.518;8.588;2023-06-19T10:51:18;2.03;;;1.63;;
19846;SDS011;10084;50.518;8.588;2023-06-19T10:53:44;1.83;;;1.60;;
19846;SDS011;10084;50.518;8.588;2023-06-19T10:56:10;1.87;;;1.77;;
19846;SDS011;10084;50.518;8.588;2023-06-19T10:58:35;2.60;;;2.03;;
19846;SDS011;10084;50.518;8.588;2023-06-19T11:01:01;2.23;;;2.13;;
19846;SDS011;10084;50.518;8.588;2023-06-19T11:03:28;2.03;;;1.90;;
19846;SDS011;10084;50.518;8.588;2023-06-19T11:05:54;5.47;;;2.37;;
19846;SDS011;10084;50.518;8.588;2023-06-19T11:08:21;1.77;;;1.67;;
19846;SDS011;10084;50.518;8.588;2023-06-19T11:10:47;1.73;;;1.63;;
19846;SDS011;10084;50.518;8.588;2023-06-19T11:13:14;2.10;;;2.00;;
19846;SDS011;10084;50.518;8.588;2023-06-19T11:15:42;1.93;;;1.77;;
19846;SDS011;10084;50.518;8.588;2023-06-19T11:18:08;3.17;;;2.03;;
19846;SDS011;10084;50.518;8.588;2023-06-19T11:20:44;1.90;;;1.70;;
19846;SDS011;10084;50.518;8.588;2023-06-19T11:23:15;1.80;;;1.70;;
19846;SDS011;10084;50.518;8.588;2023-06-19T11:25:42;2.10;;;1.90;;
19846;SDS011;10084;50.518;8.588;2023-06-19T11:28:11;1.80;;;1.70;;
19846;SDS011;10084;50.518;8.588;2023-06-19T11:30:39;1.60;;;1.50;;
19846;SDS011;10084;50.518;8.588;2023-06-19T11:33:18;2.60;;;1.80;;
19846;SDS011;10084;50.518;8.588;2023-06-19T11:35:49;2.43;;;2.07;;
19846;SDS011;10084;50.518;8.588;2023-06-19T11:38:23;3.30;;;2.00;;
19846;SDS011;10084;50.518;8.588;2023-06-19T11:40:50;2.00;;;1.90;;
19846;SDS011;10084;50.518;8.588;2023-06-19T11:43:29;1.57;;;1.47;;
19846;SDS011;10084;50.518;8.588;2023-06-19T11:46:03;1.80;;;1.70;;
19846;SDS011;10084;50.518;8.588;2023-06-19T11:48:31;2.00;;;1.90;;
19846;SDS011;10084;50.518;8.588;2023-06-19T11:50:57;2.27;;;2.07;;
19846;SDS011;10084;50.518;8.588;2023-06-19T11:53:23;1.63;;;1.53;;
19846;SDS011;10084;50.518;8.588;2023-06-19T11:55:50;1.40;;;1.30;;
19846;SDS011;10084;50.518;8.588;2023-06-19T11:58:16;2.00;;;1.90;;
19846;SDS011;10084;50.518;8.588;2023-06-19T12:00:44;2.47;;;1.63;;
19846;SDS011;10084;50.518;8.588;2023-06-19T12:03:10;1.90;;;1.77;;
19846;SDS011;10084;50.518;8.588;2023-06-19T12:05:37;2.63;;;1.80;;
19846;SDS011;10084;50.518;8.588;2023-06-19T12:08:03;2.00;;;1.90;;
19846;SDS011;10084;50.518;8.588;2023-06-19T12:10:29;1.70;;;1.60;;
19846;SDS011;10084;50.518;8.588;2023-06-19T12:12:55;1.80;;;1.70;;
19846;SDS011;10084;50.518;8.588;2023-06-19T12:15:21;2.10;;;1.80;;
19846;SDS011;10084;50.518;8.588;2023-06-19T12:17:48;1.63;;;1.53;;
19846;SDS011;10084;50.518;8.588;2023-06-19T12:20:14;1.97;;;1.77;;
19846;SDS011;10084;50.518;8.588;2023-06-19T12:22:40;1.67;;;1.57;;
19846;SDS011;10084;50.518;8.588;2023-06-19T12:25:06;1.83;;;1.70;;
19846;SDS011;10084;50.518;8.588;2023-06-19T12:27:32;1.90;;;1.80;;
19846;SDS011;10084;50.518;8.588;2023-06-19T12:29:58;1.93;;;1.70;;
19846;SDS011;10084;50.518;8.588;2023-06-19T12:32:23;1.73;;;1.63;;
19846;SDS011;10084;50.518;8.588;2023-06-19T12:34:49;2.13;;;2.03;;
19846;SDS011;10084;50.518;8.588;2023-06-19T12:37:19;1.90;;;1.80;;
19846;SDS011;10084;50.518;8.588;2023-06-19T12:39:45;2.30;;;2.10;;
19846;SDS011;10084;50.518;8.588;2023-06-19T12:42:15;2.63;;;1.97;;
19846;SDS011;10084;50.518;8.588;2023-06-19T12:44:41;2.60;;;2.40;;
19846;SDS011;10084;50.518;8.588;2023-06-19T12:47:07;1.77;;;1.67;;
19846;SDS011;10084;50.518;8.588;2023-06-19T12:49:33;2.03;;;1.93;;
19846;SDS011;10084;50.518;8.588;2023-06-19T12:51:59;3.33;;;1.83;;
19846;SDS011;10084;50.518;8.588;2023-06-19T12:54:25;1.80;;;1.70;;
19846;SDS011;10084;50.518;8.588;2023-06-19T12:56:52;2.20;;;1.70;;
19846;SDS011;10084;50.518;8.588;2023-06-19T12:59:18;3.27;;;1.87;;
19846;SDS011;10084;50.518;8.588;2023-06-19T13:01:44;1.83;;;1.73;;
19846;SDS011;10084;50.518;8.588;2023-06-19T13:04:10;2.00;;;1.90;;
19846;SDS011;10084;50.518;8.588;2023-06-19T13:06:36;2.03;;;1.93;;
19846;SDS011;10084;50.518;8.588;2023-06-19T13:09:02;2.50;;;1.93;;
19846;SDS011;10084;50.518;8.588;2023-06-19T13:11:30;1.87;;;1.77;;
19846;SDS011;10084;50.518;8.588;2023-06-19T13:13:56;1.90;;;1.80;;
19846;SDS011;10084;50.518;8.588;2023-06-19T13:16:22;2.10;;;1.90;;
19846;SDS011;10084;50.518;8.588;2023-06-19T13:18:50;2.00;;;1.83;;
19846;SDS011;10084;50.518;8.588;2023-06-19T13:21:16;2.07;;;1.97;;
19846;SDS011;10084;50.518;8.588;2023-06-19T13:23:42;1.90;;;1.80;;
19846;SDS011;10084;50.518;8.588;2023-06-19T13:26:08;1.87;;;1.77;;
19846;SDS011;10084;50.518;8.588;2023-06-19T13:28:33;2.57;;;2.37;;
19846;SDS011;10084;50.518;8.588;2023-06-19T13:30:59;1.87;;;1.77;;
19846;SDS011;10084;50.518;8.588;2023-06-19T13:33:25;2.30;;;2.20;;
19846;SDS011;10084;50.518;8.588;2023-06-19T13:35:51;4.10;;;2.20;;
19846;SDS011;10084;50.518;8.588;2023-06-19T13:38:17;2.27;;;1.87;;
19846;SDS011;10084;50.518;8.588;2023-06-19T13:40:43;2.30;;;2.10;;
19846;SDS011;10084;50.518;8.588;2023-06-19T13:43:09;2.27;;;2.07;;
19846;SDS011;10084;50.518;8.588;2023-06-19T13:45:35;3.63;;;1.87;;
19846;SDS011;10084;50.518;8.588;2023-06-19T13:48:03;4.10;;;1.90;;
19846;SDS011;10084;50.518;8.588;2023-06-19T13:50:30;2.00;;;1.87;;
19846;SDS011;10084;50.518;8.588;2023-06-19T13:52:57;2.40;;;2.20;;
19846;SDS011;10084;50.518;8.588;2023-06-19T13:55:23;2.90;;;2.03;;
19846;SDS011;10084;50.518;8.588;2023-06-19T13:57:48;3.10;;;1.90;;
19846;SDS011;10084;50.518;8.588;2023-06-19T14:00:14;1.80;;;1.70;;
19846;SDS011;10084;50.518;8.588;2023-06-19T14:02:40;1.80;;;1.70;;
19846;SDS011;10084;50.518;8.588;2023-06-19T14:05:07;2.30;;;2.20;;
19846;SDS011;10084;50.518;8.588;2023-06-19T14:07:34;2.17;;;2.07;;
19846;SDS011;10084;50.518;8.588;2023-06-19T14:10:00;1.90;;;1.80;;
19846;SDS011;10084;50.518;8.588;2023-06-19T14:12:28;1.80;;;1.70;;
19846;SDS011;10084;50.518;8.588;2023-06-19T14:14:54;2.27;;;2.07;;
19846;SDS011;10084;50.518;8.588;2023-06-19T14:17:21;2.23;;;1.90;;
19846;SDS011;10084;50.518;8.588;2023-06-19T14:19:47;1.80;;;1.70;;
19846;SDS011;10084;50.518;8.588;2023-06-19T14:22:13;2.80;;;1.83;;
19846;SDS011;10084;50.518;8.588;2023-06-19T14:24:39;1.80;;;1.70;;
19846;SDS011;10084;50.518;8.588;2023-06-19T14:27:05;2.07;;;1.77;;
19846;SDS011;10084;50.518;8.588;2023-06-19T14:29:31;2.10;;;1.93;;
19846;SDS011;10084;50.518;8.588;2023-06-19T14:31:57;5.23;;;1.93;;
19846;SDS011;10084;50.518;8.588;2023-06-19T14:34:22;2.20;;;2.00;;
19846;SDS011;10084;50.518;8.588;2023-06-19T14:36:48;1.90;;;1.80;;
19846;SDS011;10084;50.518;8.588;2023-06-19T14:39:14;2.43;;;2.23;;
19846;SDS011;10084;50.518;8.588;2023-06-19T14:41:39;1.80;;;1.70;;
19846;SDS011;10084;50.518;8.588;2023-06-19T14:44:05;1.70;;;1.60;;
19846;SDS011;10084;50.518;8.588;2023-06-19T14:46:31;2.53;;;1.97;;
19846;SDS011;10084;50.518;8.588;2023-06-19T14:48:57;5.43;;;1.80;;
19846;SDS011;10084;50.518;8.588;2023-06-19T14:51:25;2.07;;;1.97;;
19846;SDS011;10084;50.518;8.588;2023-06-19T14:53:51;4.60;;;2.07;;
19846;SDS011;10084;50.518;8.588;2023-06-19T14:56:17;3.60;;;1.67;;